sensor_id;sensor_type;location;lat;lon;timestamp;P1;durP1;ratioP1;P2;durP2;ratioP2
68234;SDS011;55052;52.056;5.296;2023-04-24T00:01:27;1.95;;;1.50;;
68234;SDS011;55052;52.056;5.296;2023-04-24T00:03:56;2.53;;;1.73;;
68234;SDS011;55052;52.056;5.296;2023-04-24T00:06:26;4.07;;;2.10;;
68234;SDS011;55052;52.056;5.296;2023-04-24T00:08:59;3.08;;;2.20;;
68234;SDS011;55052;52.056;5.296;2023-04-24T00:11:27;3.33;;;2.17;;
68234;SDS011;55052;52.056;5.296;2023-04-24T00:13:54;4.10;;;2.42;;
68234;SDS011;55052;52.056;5.296;2023-04-24T00:16:20;3.85;;;2.58;;
68234;SDS011;55052;52.056;5.296;2023-04-24T00:18:48;4.25;;;2.58;;
68234;SDS011;55052;52.056;5.296;2023-04-24T00:21:15;4.78;;;2.53;;
68234;SDS011;55052;52.056;5.296;2023-04-24T00:23:43;5.57;;;2.78;;
68234;SDS011;55052;52.056;5.296;2023-04-24T00:26:10;6.88;;;3.20;;
68234;SDS011;55052;52.056;5.296;2023-04-24T00:28:37;4.15;;;2.70;;
68234;SDS011;55052;52.056;5.296;2023-04-24T00:31:04;5.78;;;2.40;;
68234;SDS011;55052;52.056;5.296;2023-04-24T00:33:31;4.47;;;2.20;;
68234;SDS011;55052;52.056;5.296;2023-04-24T00:35:57;5.47;;;2.72;;
68234;SDS011;55052;52.056;5.296;2023-04-24T00:38:24;4.13;;;2.30;;
68234;SDS011;55052;52.056;5.296;2023-04-24T00:40:51;6.18;;;2.42;;
68234;SDS011;55052;52.056;5.296;2023-04-24T00:43:20;4.05;;;2.38;;
68234;SDS011;55052;52.056;5.296;2023-04-24T00:45:47;5.43;;;2.63;;
68234;SDS011;55052;52.056;5.296;2023-04-24T00:48:14;5.28;;;2.92;;
68234;SDS011;55052;52.056;5.296;2023-04-24T00:50:41;5.07;;;3.58;;
68234;SDS011;55052;52.056;5.296;2023-04-24T00:53:08;4.93;;;3.35;;
68234;SDS011;55052;52.056;5.296;2023-04-24T00:55:35;6.47;;;3.50;;
68234;SDS011;55052;52.056;5.296;2023-04-24T00:58:03;7.30;;;3.33;;
68234;SDS011;55052;52.056;5.296;2023-04-24T01:00:31;6.53;;;3.70;;
68234;SDS011;55052;52.056;5.296;2023-04-24T01:02:58;6.72;;;3.58;;
68234;SDS011;55052;52.056;5.296;2023-04-24T01:07:54;6.10;;;3.60;;
68234;SDS011;55052;52.056;5.296;2023-04-24T01:10:22;6.15;;;3.63;;
68234;SDS011;55052;52.056;5.296;2023-04-24T01:12:50;7.97;;;4.30;;
68234;SDS011;55052;52.056;5.296;2023-04-24T01:15:17;6.57;;;3.85;;
68234;SDS011;55052;52.056;5.296;2023-04-24T01:17:44;6.38;;;4.03;;
68234;SDS011;55052;52.056;5.296;2023-04-24T01:20:11;6.45;;;3.88;;
68234;SDS011;55052;52.056;5.296;2023-04-24T01:22:39;6.30;;;3.70;;
68234;SDS011;55052;52.056;5.296;2023-04-24T01:25:07;5.22;;;3.50;;
68234;SDS011;55052;52.056;5.296;2023-04-24T01:27:34;5.38;;;3.78;;
68234;SDS011;55052;52.056;5.296;2023-04-24T01:30:01;7.53;;;3.72;;
68234;SDS011;55052;52.056;5.296;2023-04-24T01:32:28;5.53;;;3.97;;
68234;SDS011;55052;52.056;5.296;2023-04-24T01:34:55;5.72;;;3.38;;
68234;SDS011;55052;52.056;5.296;2023-04-24T01:37:22;5.82;;;3.97;;
68234;SDS011;55052;52.056;5.296;2023-04-24T01:39:49;5.18;;;3.63;;
68234;SDS011;55052;52.056;5.296;2023-04-24T01:42:16;5.95;;;3.55;;
68234;SDS011;55052;52.056;5.296;2023-04-24T01:44:43;7.28;;;3.78;;
68234;SDS011;55052;52.056;5.296;2023-04-24T01:47:10;9.73;;;3.85;;
68234;SDS011;55052;52.056;5.296;2023-04-24T01:49:37;6.07;;;3.58;;
68234;SDS011;55052;52.056;5.296;2023-04-24T01:52:05;5.78;;;3.80;;
68234;SDS011;55052;52.056;5.296;2023-04-24T01:54:31;5.35;;;3.33;;
68234;SDS011;55052;52.056;5.296;2023-04-24T01:56:58;6.15;;;3.28;;
68234;SDS011;55052;52.056;5.296;2023-04-24T01:59:27;6.38;;;3.38;;
68234;SDS011;55052;52.056;5.296;2023-04-24T02:01:54;5.70;;;3.38;;
68234;SDS011;55052;52.056;5.296;2023-04-24T02:04:21;4.97;;;3.60;;
68234;SDS011;55052;52.056;5.296;2023-04-24T02:06:48;5.88;;;3.40;;
68234;SDS011;55052;52.056;5.296;2023-04-24T02:09:15;7.55;;;3.85;;
68234;SDS011;55052;52.056;5.296;2023-04-24T02:11:42;8.57;;;4.10;;
68234;SDS011;55052;52.056;5.296;2023-04-24T02:14:08;6.18;;;3.83;;
68234;SDS011;55052;52.056;5.296;2023-04-24T02:16:35;6.05;;;4.10;;
68234;SDS011;55052;52.056;5.296;2023-04-24T02:19:02;5.82;;;4.40;;
68234;SDS011;55052;52.056;5.296;2023-04-24T02:21:29;6.57;;;4.55;;
68234;SDS011;55052;52.056;5.296;2023-04-24T02:23:57;6.03;;;3.97;;
68234;SDS011;55052;52.056;5.296;2023-04-24T02:26:24;8.05;;;4.22;;
68234;SDS011;55052;52.056;5.296;2023-04-24T02:28:51;7.45;;;4.20;;
68234;SDS011;55052;52.056;5.296;2023-04-24T02:31:17;7.85;;;4.20;;
68234;SDS011;55052;52.056;5.296;2023-04-24T02:33:44;5.65;;;3.63;;
68234;SDS011;55052;52.056;5.296;2023-04-24T02:36:11;6.63;;;4.20;;
68234;SDS011;55052;52.056;5.296;2023-04-24T02:38:39;7.50;;;4.07;;
68234;SDS011;55052;52.056;5.296;2023-04-24T02:41:06;6.97;;;4.03;;
68234;SDS011;55052;52.056;5.296;2023-04-24T02:43:32;6.38;;;4.10;;
68234;SDS011;55052;52.056;5.296;2023-04-24T02:45:59;6.45;;;3.83;;
68234;SDS011;55052;52.056;5.296;2023-04-24T02:48:26;6.57;;;3.90;;
68234;SDS011;55052;52.056;5.296;2023-04-24T02:50:54;6.28;;;3.72;;
68234;SDS011;55052;52.056;5.296;2023-04-24T02:53:20;7.03;;;3.95;;
68234;SDS011;55052;52.056;5.296;2023-04-24T02:55:47;6.30;;;4.43;;
68234;SDS011;55052;52.056;5.296;2023-04-24T02:58:14;6.32;;;4.30;;
68234;SDS011;55052;52.056;5.296;2023-04-24T03:00:41;6.53;;;4.70;;
68234;SDS011;55052;52.056;5.296;2023-04-24T03:03:09;8.57;;;5.05;;
68234;SDS011;55052;52.056;5.296;2023-04-24T03:05:36;7.30;;;4.78;;
68234;SDS011;55052;52.056;5.296;2023-04-24T03:08:03;6.70;;;4.47;;
68234;SDS011;55052;52.056;5.296;2023-04-24T03:10:30;8.75;;;4.95;;
68234;SDS011;55052;52.056;5.296;2023-04-24T03:12:56;7.25;;;5.07;;
68234;SDS011;55052;52.056;5.296;2023-04-24T03:15:23;9.13;;;5.40;;
68234;SDS011;55052;52.056;5.296;2023-04-24T03:17:50;7.07;;;4.95;;
68234;SDS011;55052;52.056;5.296;2023-04-24T03:20:18;7.45;;;4.93;;
68234;SDS011;55052;52.056;5.296;2023-04-24T03:22:45;7.68;;;5.35;;
68234;SDS011;55052;52.056;5.296;2023-04-24T03:25:12;7.15;;;5.20;;
68234;SDS011;55052;52.056;5.296;2023-04-24T03:27:38;7.65;;;5.43;;
68234;SDS011;55052;52.056;5.296;2023-04-24T03:30:06;6.60;;;4.30;;
68234;SDS011;55052;52.056;5.296;2023-04-24T03:32:33;5.70;;;3.80;;
68234;SDS011;55052;52.056;5.296;2023-04-24T03:35:00;5.25;;;3.05;;
68234;SDS011;55052;52.056;5.296;2023-04-24T03:37:27;5.72;;;3.10;;
68234;SDS011;55052;52.056;5.296;2023-04-24T03:39:53;4.05;;;2.47;;
68234;SDS011;55052;52.056;5.296;2023-04-24T03:42:20;5.13;;;2.75;;
68234;SDS011;55052;52.056;5.296;2023-04-24T03:44:47;6.28;;;3.13;;
68234;SDS011;55052;52.056;5.296;2023-04-24T03:47:14;6.70;;;3.17;;
68234;SDS011;55052;52.056;5.296;2023-04-24T03:49:41;5.88;;;3.10;;
68234;SDS011;55052;52.056;5.296;2023-04-24T03:52:08;4.13;;;2.58;;
68234;SDS011;55052;52.056;5.296;2023-04-24T03:54:35;4.72;;;3.10;;
68234;SDS011;55052;52.056;5.296;2023-04-24T03:57:01;5.45;;;3.20;;
68234;SDS011;55052;52.056;5.296;2023-04-24T03:59:29;5.68;;;3.33;;
68234;SDS011;55052;52.056;5.296;2023-04-24T04:01:56;4.95;;;3.13;;
68234;SDS011;55052;52.056;5.296;2023-04-24T04:04:23;6.40;;;3.63;;
68234;SDS011;55052;52.056;5.296;2023-04-24T04:06:50;5.80;;;3.40;;
68234;SDS011;55052;52.056;5.296;2023-04-24T04:09:17;5.97;;;3.83;;
68234;SDS011;55052;52.056;5.296;2023-04-24T04:11:44;6.00;;;3.80;;
68234;SDS011;55052;52.056;5.296;2023-04-24T04:14:10;6.03;;;3.65;;
68234;SDS011;55052;52.056;5.296;2023-04-24T04:16:37;6.20;;;4.07;;
68234;SDS011;55052;52.056;5.296;2023-04-24T04:19:04;6.95;;;4.53;;
68234;SDS011;55052;52.056;5.296;2023-04-24T04:21:31;6.10;;;3.55;;
68234;SDS011;55052;52.056;5.296;2023-04-24T04:23:58;6.85;;;3.75;;
68234;SDS011;55052;52.056;5.296;2023-04-24T04:26:25;6.22;;;3.47;;
68234;SDS011;55052;52.056;5.296;2023-04-24T04:28:52;7.47;;;3.63;;
68234;SDS011;55052;52.056;5.296;2023-04-24T04:31:19;6.30;;;3.70;;
68234;SDS011;55052;52.056;5.296;2023-04-24T04:33:47;6.20;;;3.60;;
68234;SDS011;55052;52.056;5.296;2023-04-24T04:36:13;6.93;;;3.58;;
68234;SDS011;55052;52.056;5.296;2023-04-24T04:38:40;6.28;;;3.75;;
68234;SDS011;55052;52.056;5.296;2023-04-24T04:41:09;7.32;;;4.25;;
68234;SDS011;55052;52.056;5.296;2023-04-24T04:43:35;6.30;;;3.83;;
68234;SDS011;55052;52.056;5.296;2023-04-24T04:46:04;6.18;;;3.50;;
68234;SDS011;55052;52.056;5.296;2023-04-24T04:48:31;6.88;;;3.40;;
68234;SDS011;55052;52.056;5.296;2023-04-24T04:50:58;4.72;;;2.90;;
68234;SDS011;55052;52.056;5.296;2023-04-24T04:53:24;6.53;;;3.20;;
68234;SDS011;55052;52.056;5.296;2023-04-24T04:55:52;6.15;;;3.45;;
68234;SDS011;55052;52.056;5.296;2023-04-24T04:58:18;6.80;;;3.15;;
68234;SDS011;55052;52.056;5.296;2023-04-24T05:00:46;6.05;;;3.45;;
68234;SDS011;55052;52.056;5.296;2023-04-24T05:03:12;6.65;;;3.25;;
68234;SDS011;55052;52.056;5.296;2023-04-24T05:05:44;6.72;;;3.20;;
68234;SDS011;55052;52.056;5.296;2023-04-24T05:08:10;4.35;;;2.60;;
68234;SDS011;55052;52.056;5.296;2023-04-24T05:10:51;6.10;;;3.60;;
68234;SDS011;55052;52.056;5.296;2023-04-24T05:13:18;5.18;;;2.90;;
68234;SDS011;55052;52.056;5.296;2023-04-24T05:15:57;6.60;;;3.70;;
68234;SDS011;55052;52.056;5.296;2023-04-24T05:18:24;6.60;;;3.30;;
68234;SDS011;55052;52.056;5.296;2023-04-24T05:20:51;5.65;;;3.33;;
68234;SDS011;55052;52.056;5.296;2023-04-24T05:23:17;5.75;;;3.15;;
68234;SDS011;55052;52.056;5.296;2023-04-24T05:25:44;6.13;;;3.28;;
68234;SDS011;55052;52.056;5.296;2023-04-24T05:28:12;5.85;;;3.42;;
68234;SDS011;55052;52.056;5.296;2023-04-24T05:30:39;7.57;;;4.10;;
68234;SDS011;55052;52.056;5.296;2023-04-24T05:33:06;7.90;;;3.83;;
68234;SDS011;55052;52.056;5.296;2023-04-24T05:35:33;7.78;;;4.10;;
68234;SDS011;55052;52.056;5.296;2023-04-24T05:38:00;6.55;;;3.85;;
68234;SDS011;55052;52.056;5.296;2023-04-24T05:40:27;7.25;;;4.25;;
68234;SDS011;55052;52.056;5.296;2023-04-24T05:42:54;8.13;;;4.13;;
68234;SDS011;55052;52.056;5.296;2023-04-24T05:45:20;7.05;;;4.38;;
68234;SDS011;55052;52.056;5.296;2023-04-24T05:47:47;8.57;;;4.75;;
68234;SDS011;55052;52.056;5.296;2023-04-24T05:50:14;8.10;;;4.22;;
68234;SDS011;55052;52.056;5.296;2023-04-24T05:52:41;6.90;;;4.18;;
68234;SDS011;55052;52.056;5.296;2023-04-24T05:55:08;9.45;;;4.80;;
68234;SDS011;55052;52.056;5.296;2023-04-24T05:57:34;6.95;;;3.13;;
68234;SDS011;55052;52.056;5.296;2023-04-24T06:00:01;3.63;;;1.90;;
68234;SDS011;55052;52.056;5.296;2023-04-24T06:02:30;3.22;;;1.75;;
68234;SDS011;55052;52.056;5.296;2023-04-24T06:04:59;4.93;;;1.88;;
68234;SDS011;55052;52.056;5.296;2023-04-24T06:07:26;1.73;;;1.30;;
68234;SDS011;55052;52.056;5.296;2023-04-24T06:09:52;2.42;;;1.50;;
68234;SDS011;55052;52.056;5.296;2023-04-24T06:12:19;2.65;;;1.48;;
68234;SDS011;55052;52.056;5.296;2023-04-24T06:14:46;2.28;;;1.50;;
68234;SDS011;55052;52.056;5.296;2023-04-24T06:17:13;1.95;;;1.60;;
68234;SDS011;55052;52.056;5.296;2023-04-24T06:19:40;6.05;;;1.40;;
68234;SDS011;55052;52.056;5.296;2023-04-24T06:22:07;4.20;;;1.75;;
68234;SDS011;55052;52.056;5.296;2023-04-24T06:24:36;2.88;;;1.55;;
68234;SDS011;55052;52.056;5.296;2023-04-24T06:27:03;2.83;;;1.77;;
68234;SDS011;55052;52.056;5.296;2023-04-24T06:29:29;2.95;;;1.80;;
68234;SDS011;55052;52.056;5.296;2023-04-24T06:31:56;3.88;;;1.77;;
68234;SDS011;55052;52.056;5.296;2023-04-24T06:34:23;4.13;;;2.35;;
68234;SDS011;55052;52.056;5.296;2023-04-24T06:36:51;6.50;;;3.45;;
68234;SDS011;55052;52.056;5.296;2023-04-24T06:39:18;6.22;;;3.72;;
68234;SDS011;55052;52.056;5.296;2023-04-24T06:41:44;7.15;;;4.40;;
68234;SDS011;55052;52.056;5.296;2023-04-24T06:44:11;10.15;;;5.30;;
68234;SDS011;55052;52.056;5.296;2023-04-24T06:46:38;13.10;;;5.95;;
68234;SDS011;55052;52.056;5.296;2023-04-24T06:49:07;11.63;;;6.45;;
68234;SDS011;55052;52.056;5.296;2023-04-24T06:51:33;13.60;;;7.60;;
68234;SDS011;55052;52.056;5.296;2023-04-24T06:54:00;11.52;;;7.32;;
68234;SDS011;55052;52.056;5.296;2023-04-24T06:56:28;12.13;;;7.70;;
68234;SDS011;55052;52.056;5.296;2023-04-24T06:58:57;17.52;;;8.32;;
68234;SDS011;55052;52.056;5.296;2023-04-24T07:01:24;13.57;;;8.23;;
68234;SDS011;55052;52.056;5.296;2023-04-24T07:03:51;16.98;;;9.07;;
68234;SDS011;55052;52.056;5.296;2023-04-24T07:06:18;14.63;;;8.60;;
68234;SDS011;55052;52.056;5.296;2023-04-24T07:08:48;22.50;;;9.65;;
68234;SDS011;55052;52.056;5.296;2023-04-24T07:11:15;16.40;;;8.32;;
68234;SDS011;55052;52.056;5.296;2023-04-24T07:13:42;14.15;;;8.00;;
68234;SDS011;55052;52.056;5.296;2023-04-24T07:16:09;13.43;;;7.78;;
68234;SDS011;55052;52.056;5.296;2023-04-24T07:18:36;16.63;;;8.75;;
68234;SDS011;55052;52.056;5.296;2023-04-24T07:21:05;17.83;;;8.25;;
68234;SDS011;55052;52.056;5.296;2023-04-24T07:23:33;18.50;;;8.70;;
68234;SDS011;55052;52.056;5.296;2023-04-24T07:25:59;15.65;;;8.55;;
68234;SDS011;55052;52.056;5.296;2023-04-24T07:28:26;17.23;;;8.27;;
68234;SDS011;55052;52.056;5.296;2023-04-24T07:30:57;15.50;;;7.82;;
68234;SDS011;55052;52.056;5.296;2023-04-24T07:33:25;15.35;;;7.78;;
68234;SDS011;55052;52.056;5.296;2023-04-24T07:35:52;16.88;;;8.48;;
68234;SDS011;55052;52.056;5.296;2023-04-24T07:38:19;18.50;;;8.50;;
68234;SDS011;55052;52.056;5.296;2023-04-24T07:40:49;21.67;;;9.43;;
68234;SDS011;55052;52.056;5.296;2023-04-24T07:43:15;15.45;;;8.45;;
68234;SDS011;55052;52.056;5.296;2023-04-24T07:45:42;20.63;;;9.43;;
68234;SDS011;55052;52.056;5.296;2023-04-24T07:48:09;16.85;;;8.00;;
68234;SDS011;55052;52.056;5.296;2023-04-24T07:50:36;16.83;;;7.95;;
68234;SDS011;55052;52.056;5.296;2023-04-24T07:53:03;18.73;;;7.80;;
68234;SDS011;55052;52.056;5.296;2023-04-24T07:55:30;13.75;;;7.05;;
68234;SDS011;55052;52.056;5.296;2023-04-24T07:57:57;17.52;;;7.53;;
68234;SDS011;55052;52.056;5.296;2023-04-24T08:00:24;18.52;;;6.70;;
68234;SDS011;55052;52.056;5.296;2023-04-24T08:02:50;15.95;;;6.05;;
68234;SDS011;55052;52.056;5.296;2023-04-24T08:05:17;18.58;;;5.63;;
68234;SDS011;55052;52.056;5.296;2023-04-24T08:07:45;23.30;;;5.70;;
68234;SDS011;55052;52.056;5.296;2023-04-24T08:10:14;20.27;;;5.68;;
68234;SDS011;55052;52.056;5.296;2023-04-24T08:12:41;19.05;;;5.60;;
68234;SDS011;55052;52.056;5.296;2023-04-24T08:15:08;18.92;;;5.07;;
68234;SDS011;55052;52.056;5.296;2023-04-24T08:17:35;28.33;;;5.13;;
68234;SDS011;55052;52.056;5.296;2023-04-24T08:20:03;16.10;;;4.75;;
68234;SDS011;55052;52.056;5.296;2023-04-24T08:22:31;20.50;;;4.95;;
68234;SDS011;55052;52.056;5.296;2023-04-24T08:24:59;15.98;;;4.15;;
68234;SDS011;55052;52.056;5.296;2023-04-24T08:27:26;18.75;;;4.32;;
68234;SDS011;55052;52.056;5.296;2023-04-24T08:29:53;19.92;;;4.13;;
68234;SDS011;55052;52.056;5.296;2023-04-24T08:32:20;19.30;;;4.05;;
68234;SDS011;55052;52.056;5.296;2023-04-24T08:34:47;14.93;;;4.15;;
68234;SDS011;55052;52.056;5.296;2023-04-24T08:37:15;18.77;;;3.85;;
68234;SDS011;55052;52.056;5.296;2023-04-24T08:39:42;19.45;;;3.58;;
68234;SDS011;55052;52.056;5.296;2023-04-24T08:42:09;9.57;;;2.90;;
68234;SDS011;55052;52.056;5.296;2023-04-24T08:44:39;19.98;;;4.10;;
68234;SDS011;55052;52.056;5.296;2023-04-24T08:47:06;19.33;;;3.53;;
68234;SDS011;55052;52.056;5.296;2023-04-24T08:49:34;17.23;;;3.30;;
68234;SDS011;55052;52.056;5.296;2023-04-24T08:52:03;12.40;;;3.35;;
68234;SDS011;55052;52.056;5.296;2023-04-24T08:54:31;10.43;;;2.70;;
68234;SDS011;55052;52.056;5.296;2023-04-24T08:57:01;8.20;;;2.23;;
68234;SDS011;55052;52.056;5.296;2023-04-24T08:59:30;13.10;;;3.13;;
68234;SDS011;55052;52.056;5.296;2023-04-24T09:01:58;10.50;;;3.22;;
68234;SDS011;55052;52.056;5.296;2023-04-24T09:04:25;14.40;;;3.05;;
68234;SDS011;55052;52.056;5.296;2023-04-24T09:06:55;11.70;;;2.85;;
68234;SDS011;55052;52.056;5.296;2023-04-24T09:09:23;11.05;;;2.85;;
68234;SDS011;55052;52.056;5.296;2023-04-24T09:11:51;10.00;;;2.70;;
68234;SDS011;55052;52.056;5.296;2023-04-24T09:14:20;15.82;;;3.38;;
68234;SDS011;55052;52.056;5.296;2023-04-24T09:16:48;16.42;;;3.35;;
68234;SDS011;55052;52.056;5.296;2023-04-24T09:19:15;13.38;;;3.30;;
68234;SDS011;55052;52.056;5.296;2023-04-24T09:21:45;25.80;;;3.95;;
68234;SDS011;55052;52.056;5.296;2023-04-24T09:24:17;11.43;;;2.90;;
68234;SDS011;55052;52.056;5.296;2023-04-24T09:26:47;9.90;;;2.83;;
68234;SDS011;55052;52.056;5.296;2023-04-24T09:29:17;11.43;;;2.92;;
68234;SDS011;55052;52.056;5.296;2023-04-24T09:31:45;14.52;;;3.65;;
68234;SDS011;55052;52.056;5.296;2023-04-24T09:34:12;12.13;;;3.03;;
68234;SDS011;55052;52.056;5.296;2023-04-24T09:36:40;12.95;;;3.15;;
68234;SDS011;55052;52.056;5.296;2023-04-24T09:39:09;10.23;;;3.20;;
68234;SDS011;55052;52.056;5.296;2023-04-24T09:41:44;13.07;;;2.97;;
68234;SDS011;55052;52.056;5.296;2023-04-24T09:46:49;8.10;;;2.47;;
68234;SDS011;55052;52.056;5.296;2023-04-24T09:52:02;8.45;;;2.63;;
68234;SDS011;55052;52.056;5.296;2023-04-24T09:57:00;8.80;;;2.50;;
68234;SDS011;55052;52.056;5.296;2023-04-24T09:59:27;9.48;;;2.60;;
68234;SDS011;55052;52.056;5.296;2023-04-24T10:01:54;8.85;;;2.38;;
68234;SDS011;55052;52.056;5.296;2023-04-24T10:04:24;10.27;;;2.53;;
68234;SDS011;55052;52.056;5.296;2023-04-24T10:06:55;10.38;;;2.25;;
68234;SDS011;55052;52.056;5.296;2023-04-24T10:09:24;9.43;;;2.60;;
68234;SDS011;55052;52.056;5.296;2023-04-24T10:11:54;13.63;;;3.43;;
68234;SDS011;55052;52.056;5.296;2023-04-24T10:14:22;9.30;;;2.30;;
68234;SDS011;55052;52.056;5.296;2023-04-24T10:16:52;7.75;;;2.00;;
68234;SDS011;55052;52.056;5.296;2023-04-24T10:19:20;10.00;;;2.03;;
68234;SDS011;55052;52.056;5.296;2023-04-24T10:21:47;11.60;;;2.65;;
68234;SDS011;55052;52.056;5.296;2023-04-24T10:24:18;7.55;;;2.00;;
68234;SDS011;55052;52.056;5.296;2023-04-24T10:26:47;7.78;;;1.90;;
68234;SDS011;55052;52.056;5.296;2023-04-24T10:29:16;4.38;;;1.50;;
68234;SDS011;55052;52.056;5.296;2023-04-24T10:31:44;7.40;;;1.90;;
68234;SDS011;55052;52.056;5.296;2023-04-24T10:34:14;6.88;;;1.60;;
68234;SDS011;55052;52.056;5.296;2023-04-24T10:36:46;4.38;;;1.80;;
68234;SDS011;55052;52.056;5.296;2023-04-24T10:39:18;4.07;;;1.42;;
68234;SDS011;55052;52.056;5.296;2023-04-24T10:41:53;3.80;;;1.45;;
68234;SDS011;55052;52.056;5.296;2023-04-24T10:44:23;5.55;;;1.83;;
68234;SDS011;55052;52.056;5.296;2023-04-24T10:46:54;8.20;;;1.92;;
68234;SDS011;55052;52.056;5.296;2023-04-24T10:49:30;4.72;;;1.70;;
68234;SDS011;55052;52.056;5.296;2023-04-24T10:52:01;5.95;;;1.90;;
68234;SDS011;55052;52.056;5.296;2023-04-24T10:54:41;3.03;;;1.40;;
68234;SDS011;55052;52.056;5.296;2023-04-24T10:59:47;3.40;;;1.50;;
68234;SDS011;55052;52.056;5.296;2023-04-24T11:02:17;4.60;;;1.47;;
68234;SDS011;55052;52.056;5.296;2023-04-24T11:04:45;3.28;;;1.30;;
68234;SDS011;55052;52.056;5.296;2023-04-24T11:07:12;4.43;;;1.27;;
68234;SDS011;55052;52.056;5.296;2023-04-24T11:09:39;5.53;;;1.40;;
68234;SDS011;55052;52.056;5.296;2023-04-24T11:12:10;3.40;;;1.20;;
68234;SDS011;55052;52.056;5.296;2023-04-24T11:17:30;4.28;;;1.77;;
68234;SDS011;55052;52.056;5.296;2023-04-24T11:22:52;4.75;;;1.73;;
68234;SDS011;55052;52.056;5.296;2023-04-24T11:25:21;7.43;;;1.80;;
68234;SDS011;55052;52.056;5.296;2023-04-24T11:27:52;4.35;;;1.70;;
68234;SDS011;55052;52.056;5.296;2023-04-24T11:30:31;5.93;;;2.35;;
68234;SDS011;55052;52.056;5.296;2023-04-24T11:33:02;7.40;;;2.03;;
68234;SDS011;55052;52.056;5.296;2023-04-24T11:35:35;7.60;;;1.80;;
68234;SDS011;55052;52.056;5.296;2023-04-24T11:38:05;10.15;;;2.15;;
68234;SDS011;55052;52.056;5.296;2023-04-24T11:40:49;12.57;;;1.90;;
68234;SDS011;55052;52.056;5.296;2023-04-24T11:43:16;5.22;;;1.80;;
68234;SDS011;55052;52.056;5.296;2023-04-24T11:45:48;5.55;;;1.52;;
68234;SDS011;55052;52.056;5.296;2023-04-24T11:50:48;4.20;;;1.30;;
68234;SDS011;55052;52.056;5.296;2023-04-24T11:53:15;5.93;;;1.35;;
68234;SDS011;55052;52.056;5.296;2023-04-24T11:55:41;4.38;;;1.17;;
68234;SDS011;55052;52.056;5.296;2023-04-24T11:58:08;9.00;;;1.60;;
68234;SDS011;55052;52.056;5.296;2023-04-24T12:00:35;2.30;;;1.20;;
68234;SDS011;55052;52.056;5.296;2023-04-24T12:05:34;4.47;;;1.30;;
68234;SDS011;55052;52.056;5.296;2023-04-24T12:08:01;7.80;;;1.60;;
68234;SDS011;55052;52.056;5.296;2023-04-24T12:10:29;4.95;;;1.52;;
68234;SDS011;55052;52.056;5.296;2023-04-24T12:12:58;3.85;;;1.40;;
68234;SDS011;55052;52.056;5.296;2023-04-24T12:15:26;5.80;;;1.83;;
68234;SDS011;55052;52.056;5.296;2023-04-24T12:17:53;8.32;;;1.83;;
68234;SDS011;55052;52.056;5.296;2023-04-24T12:20:28;7.75;;;2.00;;
68234;SDS011;55052;52.056;5.296;2023-04-24T12:22:56;5.47;;;1.60;;
68234;SDS011;55052;52.056;5.296;2023-04-24T12:25:25;3.28;;;1.33;;
68234;SDS011;55052;52.056;5.296;2023-04-24T12:30:30;11.65;;;3.95;;
68234;SDS011;55052;52.056;5.296;2023-04-24T12:32:59;5.53;;;1.80;;
68234;SDS011;55052;52.056;5.296;2023-04-24T12:35:27;5.35;;;1.50;;
68234;SDS011;55052;52.056;5.296;2023-04-24T12:37:55;7.53;;;1.75;;
68234;SDS011;55052;52.056;5.296;2023-04-24T12:40:31;8.00;;;1.63;;
68234;SDS011;55052;52.056;5.296;2023-04-24T12:42:58;10.02;;;1.75;;
68234;SDS011;55052;52.056;5.296;2023-04-24T12:45:24;9.00;;;2.13;;
68234;SDS011;55052;52.056;5.296;2023-04-24T12:47:54;6.43;;;2.05;;
68234;SDS011;55052;52.056;5.296;2023-04-24T12:50:20;7.63;;;1.70;;
68234;SDS011;55052;52.056;5.296;2023-04-24T12:52:47;10.27;;;2.28;;
68234;SDS011;55052;52.056;5.296;2023-04-24T12:55:14;6.40;;;2.08;;
68234;SDS011;55052;52.056;5.296;2023-04-24T12:57:41;6.22;;;2.03;;
68234;SDS011;55052;52.056;5.296;2023-04-24T13:00:08;10.10;;;2.15;;
68234;SDS011;55052;52.056;5.296;2023-04-24T13:02:35;8.55;;;1.90;;
68234;SDS011;55052;52.056;5.296;2023-04-24T13:05:03;17.15;;;2.50;;
68234;SDS011;55052;52.056;5.296;2023-04-24T13:07:30;6.70;;;2.00;;
68234;SDS011;55052;52.056;5.296;2023-04-24T13:09:56;7.95;;;1.90;;
68234;SDS011;55052;52.056;5.296;2023-04-24T13:12:24;8.50;;;2.30;;
68234;SDS011;55052;52.056;5.296;2023-04-24T13:14:52;5.47;;;1.95;;
68234;SDS011;55052;52.056;5.296;2023-04-24T13:17:19;8.55;;;2.33;;
68234;SDS011;55052;52.056;5.296;2023-04-24T13:19:49;8.55;;;2.63;;
68234;SDS011;55052;52.056;5.296;2023-04-24T13:22:17;10.00;;;2.20;;
68234;SDS011;55052;52.056;5.296;2023-04-24T13:24:47;14.77;;;2.67;;
68234;SDS011;55052;52.056;5.296;2023-04-24T13:27:17;10.10;;;2.53;;
68234;SDS011;55052;52.056;5.296;2023-04-24T13:29:44;15.48;;;2.60;;
68234;SDS011;55052;52.056;5.296;2023-04-24T13:32:11;11.63;;;2.33;;
68234;SDS011;55052;52.056;5.296;2023-04-24T13:34:39;13.02;;;3.13;;
68234;SDS011;55052;52.056;5.296;2023-04-24T13:37:05;8.50;;;2.13;;
68234;SDS011;55052;52.056;5.296;2023-04-24T13:39:34;8.25;;;2.30;;
68234;SDS011;55052;52.056;5.296;2023-04-24T13:42:01;9.20;;;2.60;;
68234;SDS011;55052;52.056;5.296;2023-04-24T13:44:30;12.23;;;3.30;;
68234;SDS011;55052;52.056;5.296;2023-04-24T13:46:57;13.35;;;3.15;;
68234;SDS011;55052;52.056;5.296;2023-04-24T13:49:25;12.88;;;3.20;;
68234;SDS011;55052;52.056;5.296;2023-04-24T13:51:53;8.48;;;2.60;;
68234;SDS011;55052;52.056;5.296;2023-04-24T13:54:21;9.73;;;2.55;;
68234;SDS011;55052;52.056;5.296;2023-04-24T13:56:49;14.93;;;2.88;;
68234;SDS011;55052;52.056;5.296;2023-04-24T13:59:17;10.95;;;2.90;;
68234;SDS011;55052;52.056;5.296;2023-04-24T14:01:43;8.65;;;2.10;;
68234;SDS011;55052;52.056;5.296;2023-04-24T14:04:11;6.15;;;2.30;;
68234;SDS011;55052;52.056;5.296;2023-04-24T14:06:38;8.10;;;2.20;;
68234;SDS011;55052;52.056;5.296;2023-04-24T14:09:05;7.32;;;2.30;;
68234;SDS011;55052;52.056;5.296;2023-04-24T14:11:33;8.10;;;2.90;;
68234;SDS011;55052;52.056;5.296;2023-04-24T14:14:00;6.80;;;2.30;;
68234;SDS011;55052;52.056;5.296;2023-04-24T14:16:27;11.50;;;2.88;;
68234;SDS011;55052;52.056;5.296;2023-04-24T14:18:55;9.13;;;2.42;;
68234;SDS011;55052;52.056;5.296;2023-04-24T14:21:22;12.95;;;2.63;;
68234;SDS011;55052;52.056;5.296;2023-04-24T14:23:49;10.75;;;2.90;;
68234;SDS011;55052;52.056;5.296;2023-04-24T14:26:16;8.75;;;2.75;;
68234;SDS011;55052;52.056;5.296;2023-04-24T14:28:43;13.63;;;3.15;;
68234;SDS011;55052;52.056;5.296;2023-04-24T14:31:09;12.85;;;3.22;;
68234;SDS011;55052;52.056;5.296;2023-04-24T14:33:36;12.13;;;3.20;;
68234;SDS011;55052;52.056;5.296;2023-04-24T14:36:03;8.85;;;2.95;;
68234;SDS011;55052;52.056;5.296;2023-04-24T14:38:31;13.93;;;3.08;;
68234;SDS011;55052;52.056;5.296;2023-04-24T14:40:58;14.55;;;2.88;;
68234;SDS011;55052;52.056;5.296;2023-04-24T14:43:28;9.68;;;3.03;;
68234;SDS011;55052;52.056;5.296;2023-04-24T14:45:55;13.63;;;3.28;;
68234;SDS011;55052;52.056;5.296;2023-04-24T14:48:22;12.13;;;2.50;;
68234;SDS011;55052;52.056;5.296;2023-04-24T14:50:48;6.10;;;2.45;;
68234;SDS011;55052;52.056;5.296;2023-04-24T14:53:15;12.35;;;3.75;;
68234;SDS011;55052;52.056;5.296;2023-04-24T14:55:42;12.13;;;3.58;;
68234;SDS011;55052;52.056;5.296;2023-04-24T14:58:09;11.60;;;2.90;;
68234;SDS011;55052;52.056;5.296;2023-04-24T15:00:36;10.07;;;3.08;;
68234;SDS011;55052;52.056;5.296;2023-04-24T15:03:03;11.18;;;3.38;;
68234;SDS011;55052;52.056;5.296;2023-04-24T15:05:30;17.63;;;3.63;;
68234;SDS011;55052;52.056;5.296;2023-04-24T15:07:58;10.98;;;3.20;;
68234;SDS011;55052;52.056;5.296;2023-04-24T15:10:24;10.02;;;3.33;;
68234;SDS011;55052;52.056;5.296;2023-04-24T15:12:51;12.75;;;3.33;;